sensor_id;sensor_type;location;lat;lon;timestamp;P1;durP1;ratioP1;P2;durP2;ratioP2
58992;SDS011;44782;0.000;0.000;2023-07-28T00:01:02;2.00;;;1.90;;
58992;SDS011;44782;0.000;0.000;2023-07-28T00:03:18;2.10;;;1.90;;
58992;SDS011;44782;0.000;0.000;2023-07-28T00:05:34;2.28;;;2.08;;
58992;SDS011;44782;0.000;0.000;2023-07-28T00:07:51;1.70;;;1.60;;
58992;SDS011;44782;0.000;0.000;2023-07-28T00:10:07;2.03;;;1.92;;
58992;SDS011;44782;0.000;0.000;2023-07-28T00:12:23;1.95;;;1.85;;
58992;SDS011;44782;0.000;0.000;2023-07-28T00:14:39;2.05;;;1.95;;
58992;SDS011;44782;0.000;0.000;2023-07-28T00:16:55;2.40;;;2.20;;
58992;SDS011;44782;0.000;0.000;2023-07-28T00:19:11;2.10;;;2.00;;
58992;SDS011;44782;0.000;0.000;2023-07-28T00:21:27;1.95;;;1.85;;
58992;SDS011;44782;0.000;0.000;2023-07-28T00:23:43;1.95;;;1.85;;
58992;SDS011;44782;0.000;0.000;2023-07-28T00:25:58;1.90;;;1.80;;
58992;SDS011;44782;0.000;0.000;2023-07-28T00:28:14;2.00;;;1.90;;
58992;SDS011;44782;0.000;0.000;2023-07-28T00:30:30;1.98;;;1.88;;
58992;SDS011;44782;0.000;0.000;2023-07-28T00:32:46;1.90;;;1.80;;
58992;SDS011;44782;0.000;0.000;2023-07-28T00:35:02;1.90;;;1.80;;
58992;SDS011;44782;0.000;0.000;2023-07-28T00:37:18;1.90;;;1.80;;
58992;SDS011;44782;0.000;0.000;2023-07-28T00:39:33;1.85;;;1.75;;
58992;SDS011;44782;0.000;0.000;2023-07-28T00:41:49;2.05;;;1.95;;
58992;SDS011;44782;0.000;0.000;2023-07-28T00:44:05;2.00;;;1.90;;
58992;SDS011;44782;0.000;0.000;2023-07-28T00:46:20;1.90;;;1.80;;
58992;SDS011;44782;0.000;0.000;2023-07-28T00:48:36;1.80;;;1.70;;
58992;SDS011;44782;0.000;0.000;2023-07-28T00:50:52;2.00;;;1.90;;
58992;SDS011;44782;0.000;0.000;2023-07-28T00:53:09;1.90;;;1.80;;
58992;SDS011;44782;0.000;0.000;2023-07-28T00:55:25;1.88;;;1.77;;
58992;SDS011;44782;0.000;0.000;2023-07-28T00:57:40;2.10;;;2.00;;
58992;SDS011;44782;0.000;0.000;2023-07-28T00:59:56;1.88;;;1.77;;
58992;SDS011;44782;0.000;0.000;2023-07-28T01:02:12;1.80;;;1.70;;
58992;SDS011;44782;0.000;0.000;2023-07-28T01:04:28;1.85;;;1.75;;
58992;SDS011;44782;0.000;0.000;2023-07-28T01:09:33;2.08;;;1.98;;
58992;SDS011;44782;0.000;0.000;2023-07-28T01:12:26;1.80;;;1.70;;
58992;SDS011;44782;0.000;0.000;2023-07-28T01:14:43;1.70;;;1.60;;
58992;SDS011;44782;0.000;0.000;2023-07-28T01:16:59;1.98;;;1.88;;
58992;SDS011;44782;0.000;0.000;2023-07-28T01:19:18;1.90;;;1.80;;
58992;SDS011;44782;0.000;0.000;2023-07-28T01:21:36;1.80;;;1.70;;
58992;SDS011;44782;0.000;0.000;2023-07-28T01:26:30;1.90;;;1.80;;
58992;SDS011;44782;0.000;0.000;2023-07-28T01:28:50;1.98;;;1.88;;
58992;SDS011;44782;0.000;0.000;2023-07-28T01:31:06;1.80;;;1.70;;
58992;SDS011;44782;0.000;0.000;2023-07-28T01:33:23;1.90;;;1.80;;
58992;SDS011;44782;0.000;0.000;2023-07-28T01:35:38;1.73;;;1.63;;
58992;SDS011;44782;0.000;0.000;2023-07-28T01:37:54;1.60;;;1.50;;
58992;SDS011;44782;0.000;0.000;2023-07-28T01:40:10;1.60;;;1.50;;
58992;SDS011;44782;0.000;0.000;2023-07-28T01:42:26;1.85;;;1.75;;
58992;SDS011;44782;0.000;0.000;2023-07-28T01:44:41;2.10;;;2.00;;
58992;SDS011;44782;0.000;0.000;2023-07-28T01:46:57;1.70;;;1.60;;
58992;SDS011;44782;0.000;0.000;2023-07-28T01:49:13;1.90;;;1.80;;
58992;SDS011;44782;0.000;0.000;2023-07-28T01:51:28;1.95;;;1.77;;
58992;SDS011;44782;0.000;0.000;2023-07-28T01:53:44;1.73;;;1.63;;
58992;SDS011;44782;0.000;0.000;2023-07-28T01:55:59;1.70;;;1.60;;
58992;SDS011;44782;0.000;0.000;2023-07-28T01:58:15;1.75;;;1.65;;
58992;SDS011;44782;0.000;0.000;2023-07-28T02:00:31;1.80;;;1.70;;
58992;SDS011;44782;0.000;0.000;2023-07-28T02:02:47;1.63;;;1.52;;
58992;SDS011;44782;0.000;0.000;2023-07-28T02:05:04;2.08;;;1.88;;
58992;SDS011;44782;0.000;0.000;2023-07-28T02:09:45;1.88;;;1.77;;
58992;SDS011;44782;0.000;0.000;2023-07-28T02:12:00;1.77;;;1.67;;
58992;SDS011;44782;0.000;0.000;2023-07-28T02:14:16;2.05;;;1.52;;
58992;SDS011;44782;0.000;0.000;2023-07-28T02:16:32;1.60;;;1.50;;
58992;SDS011;44782;0.000;0.000;2023-07-28T02:18:47;1.70;;;1.60;;
58992;SDS011;44782;0.000;0.000;2023-07-28T02:21:03;1.60;;;1.50;;
58992;SDS011;44782;0.000;0.000;2023-07-28T02:23:19;1.50;;;1.40;;
58992;SDS011;44782;0.000;0.000;2023-07-28T02:25:35;1.88;;;1.77;;
58992;SDS011;44782;0.000;0.000;2023-07-28T02:27:50;1.80;;;1.70;;
58992;SDS011;44782;0.000;0.000;2023-07-28T02:30:06;1.73;;;1.63;;
58992;SDS011;44782;0.000;0.000;2023-07-28T02:32:22;1.70;;;1.60;;
58992;SDS011;44782;0.000;0.000;2023-07-28T02:34:38;1.60;;;1.50;;
58992;SDS011;44782;0.000;0.000;2023-07-28T02:36:53;1.70;;;1.60;;
58992;SDS011;44782;0.000;0.000;2023-07-28T02:39:09;1.40;;;1.35;;
58992;SDS011;44782;0.000;0.000;2023-07-28T02:41:25;1.70;;;1.60;;
58992;SDS011;44782;0.000;0.000;2023-07-28T02:43:40;1.50;;;1.40;;
58992;SDS011;44782;0.000;0.000;2023-07-28T02:45:57;1.83;;;1.73;;
58992;SDS011;44782;0.000;0.000;2023-07-28T02:48:13;1.60;;;1.50;;
58992;SDS011;44782;0.000;0.000;2023-07-28T02:50:28;1.70;;;1.60;;
58992;SDS011;44782;0.000;0.000;2023-07-28T02:52:44;1.60;;;1.50;;
58992;SDS011;44782;0.000;0.000;2023-07-28T02:54:59;1.50;;;1.40;;
58992;SDS011;44782;0.000;0.000;2023-07-28T02:57:15;1.58;;;1.48;;
58992;SDS011;44782;0.000;0.000;2023-07-28T02:59:31;1.40;;;1.30;;
58992;SDS011;44782;0.000;0.000;2023-07-28T03:01:46;1.60;;;1.50;;
58992;SDS011;44782;0.000;0.000;2023-07-28T03:04:02;1.60;;;1.50;;
58992;SDS011;44782;0.000;0.000;2023-07-28T03:06:18;1.70;;;1.60;;
58992;SDS011;44782;0.000;0.000;2023-07-28T03:10:55;1.60;;;1.50;;
58992;SDS011;44782;0.000;0.000;2023-07-28T03:13:14;1.60;;;1.50;;
58992;SDS011;44782;0.000;0.000;2023-07-28T03:15:30;1.50;;;1.40;;
58992;SDS011;44782;0.000;0.000;2023-07-28T03:17:45;1.58;;;1.48;;
58992;SDS011;44782;0.000;0.000;2023-07-28T03:20:01;1.55;;;1.45;;
58992;SDS011;44782;0.000;0.000;2023-07-28T03:22:17;1.40;;;1.30;;
58992;SDS011;44782;0.000;0.000;2023-07-28T03:24:33;1.58;;;1.48;;
58992;SDS011;44782;0.000;0.000;2023-07-28T03:26:48;1.70;;;1.60;;
58992;SDS011;44782;0.000;0.000;2023-07-28T03:29:04;1.35;;;1.35;;
58992;SDS011;44782;0.000;0.000;2023-07-28T03:31:20;1.50;;;1.40;;
58992;SDS011;44782;0.000;0.000;2023-07-28T03:33:35;1.40;;;1.30;;
58992;SDS011;44782;0.000;0.000;2023-07-28T03:35:51;1.50;;;1.40;;
58992;SDS011;44782;0.000;0.000;2023-07-28T03:38:07;1.50;;;1.40;;
58992;SDS011;44782;0.000;0.000;2023-07-28T03:40:22;1.42;;;1.35;;
58992;SDS011;44782;0.000;0.000;2023-07-28T03:42:38;1.55;;;1.45;;
58992;SDS011;44782;0.000;0.000;2023-07-28T03:44:54;1.52;;;1.42;;
58992;SDS011;44782;0.000;0.000;2023-07-28T03:47:09;1.50;;;1.40;;
58992;SDS011;44782;0.000;0.000;2023-07-28T03:49:25;1.33;;;1.23;;
58992;SDS011;44782;0.000;0.000;2023-07-28T03:51:41;1.40;;;1.30;;
58992;SDS011;44782;0.000;0.000;2023-07-28T03:53:56;1.35;;;1.30;;
58992;SDS011;44782;0.000;0.000;2023-07-28T03:56:12;1.27;;;1.27;;
58992;SDS011;44782;0.000;0.000;2023-07-28T03:58:28;1.60;;;1.50;;
58992;SDS011;44782;0.000;0.000;2023-07-28T04:00:44;1.40;;;1.30;;
58992;SDS011;44782;0.000;0.000;2023-07-28T04:02:59;1.52;;;1.42;;
58992;SDS011;44782;0.000;0.000;2023-07-28T04:05:15;1.45;;;1.35;;
58992;SDS011;44782;0.000;0.000;2023-07-28T04:07:30;1.50;;;1.40;;
58992;SDS011;44782;0.000;0.000;2023-07-28T04:09:46;1.50;;;1.40;;
58992;SDS011;44782;0.000;0.000;2023-07-28T04:12:02;1.50;;;1.40;;
58992;SDS011;44782;0.000;0.000;2023-07-28T04:14:18;1.52;;;1.42;;
58992;SDS011;44782;0.000;0.000;2023-07-28T04:16:33;1.40;;;1.30;;
58992;SDS011;44782;0.000;0.000;2023-07-28T04:18:49;1.60;;;1.50;;
58992;SDS011;44782;0.000;0.000;2023-07-28T04:21:04;1.50;;;1.40;;
58992;SDS011;44782;0.000;0.000;2023-07-28T04:23:20;1.33;;;1.27;;
58992;SDS011;44782;0.000;0.000;2023-07-28T04:25:36;1.40;;;1.30;;
58992;SDS011;44782;0.000;0.000;2023-07-28T04:27:51;1.30;;;1.20;;
58992;SDS011;44782;0.000;0.000;2023-07-28T04:30:07;1.40;;;1.30;;
58992;SDS011;44782;0.000;0.000;2023-07-28T04:32:23;1.50;;;1.40;;
58992;SDS011;44782;0.000;0.000;2023-07-28T04:34:39;1.60;;;1.50;;
58992;SDS011;44782;0.000;0.000;2023-07-28T04:36:55;1.55;;;1.45;;
58992;SDS011;44782;0.000;0.000;2023-07-28T04:39:11;1.52;;;1.33;;
58992;SDS011;44782;0.000;0.000;2023-07-28T04:41:26;1.60;;;1.50;;
58992;SDS011;44782;0.000;0.000;2023-07-28T04:43:42;1.50;;;1.40;;
58992;SDS011;44782;0.000;0.000;2023-07-28T04:45:57;1.42;;;1.30;;
58992;SDS011;44782;0.000;0.000;2023-07-28T04:48:13;1.50;;;1.40;;
58992;SDS011;44782;0.000;0.000;2023-07-28T04:50:29;1.50;;;1.40;;
58992;SDS011;44782;0.000;0.000;2023-07-28T04:52:44;1.88;;;1.40;;
58992;SDS011;44782;0.000;0.000;2023-07-28T04:55:00;1.40;;;1.30;;
58992;SDS011;44782;0.000;0.000;2023-07-28T04:57:16;1.40;;;1.30;;
58992;SDS011;44782;0.000;0.000;2023-07-28T04:59:33;1.40;;;1.30;;
58992;SDS011;44782;0.000;0.000;2023-07-28T05:01:48;1.50;;;1.40;;
58992;SDS011;44782;0.000;0.000;2023-07-28T05:04:04;1.60;;;1.50;;
58992;SDS011;44782;0.000;0.000;2023-07-28T05:06:19;1.60;;;1.50;;
58992;SDS011;44782;0.000;0.000;2023-07-28T05:08:35;1.48;;;1.38;;
58992;SDS011;44782;0.000;0.000;2023-07-28T05:10:51;1.30;;;1.30;;
58992;SDS011;44782;0.000;0.000;2023-07-28T05:13:07;1.52;;;1.42;;
58992;SDS011;44782;0.000;0.000;2023-07-28T05:15:22;2.00;;;1.38;;
58992;SDS011;44782;0.000;0.000;2023-07-28T05:17:38;1.23;;;1.23;;
58992;SDS011;44782;0.000;0.000;2023-07-28T05:19:54;1.63;;;1.52;;
58992;SDS011;44782;0.000;0.000;2023-07-28T05:22:09;1.60;;;1.50;;
58992;SDS011;44782;0.000;0.000;2023-07-28T05:24:25;1.40;;;1.30;;
58992;SDS011;44782;0.000;0.000;2023-07-28T05:26:41;1.40;;;1.30;;
58992;SDS011;44782;0.000;0.000;2023-07-28T05:28:56;1.42;;;1.38;;
58992;SDS011;44782;0.000;0.000;2023-07-28T05:31:12;1.42;;;1.33;;
58992;SDS011;44782;0.000;0.000;2023-07-28T05:33:30;1.30;;;1.20;;
58992;SDS011;44782;0.000;0.000;2023-07-28T05:35:45;1.60;;;1.50;;
58992;SDS011;44782;0.000;0.000;2023-07-28T05:38:01;1.50;;;1.40;;
58992;SDS011;44782;0.000;0.000;2023-07-28T05:40:17;1.60;;;1.50;;
58992;SDS011;44782;0.000;0.000;2023-07-28T05:42:33;1.60;;;1.50;;
58992;SDS011;44782;0.000;0.000;2023-07-28T05:44:48;1.60;;;1.50;;
58992;SDS011;44782;0.000;0.000;2023-07-28T05:47:04;1.55;;;1.45;;
58992;SDS011;44782;0.000;0.000;2023-07-28T05:49:21;1.77;;;1.67;;
58992;SDS011;44782;0.000;0.000;2023-07-28T05:51:36;1.70;;;1.60;;
58992;SDS011;44782;0.000;0.000;2023-07-28T05:53:52;1.60;;;1.50;;
58992;SDS011;44782;0.000;0.000;2023-07-28T05:56:08;2.33;;;1.70;;
58992;SDS011;44782;0.000;0.000;2023-07-28T05:58:25;1.80;;;1.70;;
58992;SDS011;44782;0.000;0.000;2023-07-28T06:00:40;2.75;;;1.65;;
58992;SDS011;44782;0.000;0.000;2023-07-28T06:02:56;2.08;;;1.80;;
58992;SDS011;44782;0.000;0.000;2023-07-28T06:05:12;2.60;;;1.70;;
58992;SDS011;44782;0.000;0.000;2023-07-28T06:07:28;3.83;;;2.10;;
58992;SDS011;44782;0.000;0.000;2023-07-28T06:09:43;2.63;;;2.10;;
58992;SDS011;44782;0.000;0.000;2023-07-28T06:11:59;3.47;;;2.30;;
58992;SDS011;44782;0.000;0.000;2023-07-28T06:14:14;3.65;;;2.83;;
58992;SDS011;44782;0.000;0.000;2023-07-28T06:16:30;4.97;;;2.75;;
58992;SDS011;44782;0.000;0.000;2023-07-28T06:18:46;4.97;;;3.30;;
58992;SDS011;44782;0.000;0.000;2023-07-28T06:21:01;6.88;;;3.20;;
58992;SDS011;44782;0.000;0.000;2023-07-28T06:23:17;6.95;;;3.60;;
58992;SDS011;44782;0.000;0.000;2023-07-28T06:25:33;8.57;;;4.05;;
58992;SDS011;44782;0.000;0.000;2023-07-28T06:27:48;8.90;;;4.63;;
58992;SDS011;44782;0.000;0.000;2023-07-28T06:30:04;9.45;;;4.72;;
58992;SDS011;44782;0.000;0.000;2023-07-28T06:32:20;9.20;;;4.95;;
58992;SDS011;44782;0.000;0.000;2023-07-28T06:34:38;9.75;;;4.80;;
58992;SDS011;44782;0.000;0.000;2023-07-28T06:36:53;8.80;;;4.80;;
58992;SDS011;44782;0.000;0.000;2023-07-28T06:39:09;6.97;;;4.60;;
58992;SDS011;44782;0.000;0.000;2023-07-28T06:41:25;9.52;;;5.15;;
58992;SDS011;44782;0.000;0.000;2023-07-28T06:43:41;8.70;;;4.78;;
58992;SDS011;44782;0.000;0.000;2023-07-28T06:45:56;7.32;;;4.75;;
58992;SDS011;44782;0.000;0.000;2023-07-28T06:48:12;8.38;;;4.68;;
58992;SDS011;44782;0.000;0.000;2023-07-28T06:50:38;7.50;;;4.63;;
58992;SDS011;44782;0.000;0.000;2023-07-28T06:52:57;6.78;;;4.38;;
58992;SDS011;44782;0.000;0.000;2023-07-28T06:55:14;9.15;;;4.63;;
58992;SDS011;44782;0.000;0.000;2023-07-28T06:57:30;7.35;;;4.28;;
58992;SDS011;44782;0.000;0.000;2023-07-28T06:59:46;6.07;;;4.13;;
58992;SDS011;44782;0.000;0.000;2023-07-28T07:02:02;6.05;;;4.28;;
58992;SDS011;44782;0.000;0.000;2023-07-28T07:04:18;6.38;;;4.28;;
58992;SDS011;44782;0.000;0.000;2023-07-28T07:06:34;8.02;;;4.78;;
58992;SDS011;44782;0.000;0.000;2023-07-28T07:08:50;8.13;;;4.65;;
58992;SDS011;44782;0.000;0.000;2023-07-28T07:11:05;7.90;;;4.50;;
58992;SDS011;44782;0.000;0.000;2023-07-28T07:13:21;7.95;;;4.90;;
58992;SDS011;44782;0.000;0.000;2023-07-28T07:15:37;8.38;;;4.95;;
58992;SDS011;44782;0.000;0.000;2023-07-28T07:17:57;8.80;;;5.25;;
58992;SDS011;44782;0.000;0.000;2023-07-28T07:20:12;7.90;;;5.28;;
58992;SDS011;44782;0.000;0.000;2023-07-28T07:22:28;7.90;;;4.90;;
58992;SDS011;44782;0.000;0.000;2023-07-28T07:24:44;7.75;;;4.97;;
58992;SDS011;44782;0.000;0.000;2023-07-28T07:26:59;7.43;;;4.18;;
58992;SDS011;44782;0.000;0.000;2023-07-28T07:29:15;7.15;;;4.80;;
58992;SDS011;44782;0.000;0.000;2023-07-28T07:31:31;6.78;;;4.53;;
58992;SDS011;44782;0.000;0.000;2023-07-28T07:33:46;8.07;;;4.30;;
58992;SDS011;44782;0.000;0.000;2023-07-28T07:36:02;8.68;;;4.25;;
58992;SDS011;44782;0.000;0.000;2023-07-28T07:38:18;8.57;;;4.60;;
58992;SDS011;44782;0.000;0.000;2023-07-28T07:40:34;9.73;;;5.05;;
58992;SDS011;44782;0.000;0.000;2023-07-28T07:42:51;7.95;;;4.38;;
58992;SDS011;44782;0.000;0.000;2023-07-28T07:45:07;10.30;;;4.47;;
58992;SDS011;44782;0.000;0.000;2023-07-28T07:47:23;6.93;;;4.30;;
58992;SDS011;44782;0.000;0.000;2023-07-28T07:49:38;6.47;;;4.03;;
58992;SDS011;44782;0.000;0.000;2023-07-28T07:51:54;6.85;;;4.60;;
58992;SDS011;44782;0.000;0.000;2023-07-28T07:54:10;7.22;;;3.83;;
58992;SDS011;44782;0.000;0.000;2023-07-28T07:56:30;4.18;;;3.35;;
58992;SDS011;44782;0.000;0.000;2023-07-28T07:58:46;5.25;;;3.60;;
58992;SDS011;44782;0.000;0.000;2023-07-28T08:01:02;6.10;;;3.53;;
58992;SDS011;44782;0.000;0.000;2023-07-28T08:03:18;6.50;;;3.58;;
58992;SDS011;44782;0.000;0.000;2023-07-28T08:05:33;5.60;;;3.67;;
58992;SDS011;44782;0.000;0.000;2023-07-28T08:07:49;6.03;;;3.72;;
58992;SDS011;44782;0.000;0.000;2023-07-28T08:10:05;5.43;;;3.33;;
58992;SDS011;44782;0.000;0.000;2023-07-28T08:12:21;4.47;;;3.42;;
58992;SDS011;44782;0.000;0.000;2023-07-28T08:14:37;6.00;;;3.58;;
58992;SDS011;44782;0.000;0.000;2023-07-28T08:16:53;5.82;;;3.75;;
58992;SDS011;44782;0.000;0.000;2023-07-28T08:19:08;4.53;;;3.40;;
58992;SDS011;44782;0.000;0.000;2023-07-28T08:21:24;7.03;;;3.80;;
58992;SDS011;44782;0.000;0.000;2023-07-28T08:23:40;5.35;;;3.35;;
58992;SDS011;44782;0.000;0.000;2023-07-28T08:25:56;4.55;;;3.13;;
58992;SDS011;44782;0.000;0.000;2023-07-28T08:28:12;4.53;;;3.20;;
58992;SDS011;44782;0.000;0.000;2023-07-28T08:30:27;5.53;;;3.17;;
58992;SDS011;44782;0.000;0.000;2023-07-28T08:32:43;5.93;;;3.17;;
58992;SDS011;44782;0.000;0.000;2023-07-28T08:34:59;5.55;;;3.40;;
58992;SDS011;44782;0.000;0.000;2023-07-28T08:37:14;5.72;;;2.95;;
58992;SDS011;44782;0.000;0.000;2023-07-28T08:39:30;4.47;;;2.80;;
58992;SDS011;44782;0.000;0.000;2023-07-28T08:41:46;5.88;;;2.92;;
58992;SDS011;44782;0.000;0.000;2023-07-28T08:44:02;8.18;;;3.35;;
58992;SDS011;44782;0.000;0.000;2023-07-28T08:46:18;4.43;;;3.08;;
58992;SDS011;44782;0.000;0.000;2023-07-28T08:48:34;5.22;;;2.88;;
58992;SDS011;44782;0.000;0.000;2023-07-28T08:50:50;5.68;;;2.92;;
58992;SDS011;44782;0.000;0.000;2023-07-28T08:53:05;5.25;;;2.80;;
58992;SDS011;44782;0.000;0.000;2023-07-28T08:55:21;4.93;;;2.85;;
58992;SDS011;44782;0.000;0.000;2023-07-28T08:57:37;4.18;;;2.58;;
58992;SDS011;44782;0.000;0.000;2023-07-28T08:59:53;4.57;;;2.85;;
58992;SDS011;44782;0.000;0.000;2023-07-28T09:02:09;5.50;;;3.00;;
58992;SDS011;44782;0.000;0.000;2023-07-28T09:04:25;5.35;;;2.90;;
58992;SDS011;44782;0.000;0.000;2023-07-28T09:06:44;3.95;;;2.63;;
58992;SDS011;44782;0.000;0.000;2023-07-28T09:09:00;5.82;;;2.90;;
58992;SDS011;44782;0.000;0.000;2023-07-28T09:11:16;3.00;;;2.50;;
58992;SDS011;44782;0.000;0.000;2023-07-28T09:13:39;3.92;;;2.40;;
58992;SDS011;44782;0.000;0.000;2023-07-28T09:15:58;3.42;;;2.47;;
58992;SDS011;44782;0.000;0.000;2023-07-28T09:18:16;4.43;;;2.60;;
58992;SDS011;44782;0.000;0.000;2023-07-28T09:20:36;3.60;;;2.40;;
58992;SDS011;44782;0.000;0.000;2023-07-28T09:22:54;5.93;;;2.58;;
58992;SDS011;44782;0.000;0.000;2023-07-28T09:25:14;3.00;;;2.35;;
58992;SDS011;44782;0.000;0.000;2023-07-28T09:27:31;3.23;;;2.40;;
58992;SDS011;44782;0.000;0.000;2023-07-28T09:29:51;3.47;;;2.60;;
58992;SDS011;44782;0.000;0.000;2023-07-28T09:32:10;3.08;;;2.17;;
58992;SDS011;44782;0.000;0.000;2023-07-28T09:34:27;3.45;;;2.33;;
58992;SDS011;44782;0.000;0.000;2023-07-28T09:36:44;2.60;;;2.20;;
58992;SDS011;44782;0.000;0.000;2023-07-28T09:38:59;3.42;;;2.50;;
58992;SDS011;44782;0.000;0.000;2023-07-28T09:41:17;3.30;;;2.17;;
58992;SDS011;44782;0.000;0.000;2023-07-28T09:43:39;3.92;;;2.20;;
58992;SDS011;44782;0.000;0.000;2023-07-28T09:45:55;2.70;;;2.13;;
58992;SDS011;44782;0.000;0.000;2023-07-28T09:48:11;3.33;;;2.13;;
58992;SDS011;44782;0.000;0.000;2023-07-28T09:50:31;3.22;;;2.05;;
58992;SDS011;44782;0.000;0.000;2023-07-28T09:52:49;2.60;;;2.13;;
58992;SDS011;44782;0.000;0.000;2023-07-28T09:55:09;3.47;;;2.10;;
58992;SDS011;44782;0.000;0.000;2023-07-28T09:57:28;2.78;;;2.00;;
58992;SDS011;44782;0.000;0.000;2023-07-28T09:59:46;2.40;;;2.05;;
58992;SDS011;44782;0.000;0.000;2023-07-28T10:02:04;2.70;;;2.10;;
58992;SDS011;44782;0.000;0.000;2023-07-28T10:04:21;4.07;;;2.42;;
58992;SDS011;44782;0.000;0.000;2023-07-28T10:06:37;3.00;;;2.15;;
58992;SDS011;44782;0.000;0.000;2023-07-28T10:08:53;2.78;;;2.47;;
58992;SDS011;44782;0.000;0.000;2023-07-28T10:11:09;2.97;;;2.20;;
58992;SDS011;44782;0.000;0.000;2023-07-28T10:13:27;3.05;;;2.20;;
58992;SDS011;44782;0.000;0.000;2023-07-28T10:15:43;2.28;;;2.05;;
58992;SDS011;44782;0.000;0.000;2023-07-28T10:18:02;2.38;;;2.00;;
58992;SDS011;44782;0.000;0.000;2023-07-28T10:20:43;2.10;;;1.90;;
58992;SDS011;44782;0.000;0.000;2023-07-28T10:23:17;3.88;;;2.20;;
58992;SDS011;44782;0.000;0.000;2023-07-28T10:25:37;3.88;;;2.20;;
58992;SDS011;44782;0.000;0.000;2023-07-28T10:27:53;3.80;;;2.10;;
58992;SDS011;44782;0.000;0.000;2023-07-28T10:30:10;2.15;;;1.90;;
58992;SDS011;44782;0.000;0.000;2023-07-28T10:32:28;3.03;;;2.10;;
58992;SDS011;44782;0.000;0.000;2023-07-28T10:34:53;2.55;;;2.10;;
58992;SDS011;44782;0.000;0.000;2023-07-28T10:37:15;2.30;;;1.98;;
58992;SDS011;44782;0.000;0.000;2023-07-28T10:39:31;2.03;;;1.70;;
58992;SDS011;44782;0.000;0.000;2023-07-28T10:42:02;2.20;;;1.90;;
58992;SDS011;44782;0.000;0.000;2023-07-28T10:44:19;2.40;;;1.90;;
58992;SDS011;44782;0.000;0.000;2023-07-28T10:46:35;2.58;;;1.70;;
58992;SDS011;44782;0.000;0.000;2023-07-28T10:48:52;2.80;;;1.77;;
58992;SDS011;44782;0.000;0.000;2023-07-28T10:51:08;1.90;;;1.73;;
58992;SDS011;44782;0.000;0.000;2023-07-28T10:53:23;3.67;;;1.70;;
58992;SDS011;44782;0.000;0.000;2023-07-28T10:55:39;2.35;;;1.80;;
58992;SDS011;44782;0.000;0.000;2023-07-28T10:57:55;1.77;;;1.63;;
58992;SDS011;44782;0.000;0.000;2023-07-28T11:00:14;1.92;;;1.58;;
58992;SDS011;44782;0.000;0.000;2023-07-28T11:02:32;2.33;;;1.95;;
58992;SDS011;44782;0.000;0.000;2023-07-28T11:04:48;1.77;;;1.63;;
58992;SDS011;44782;0.000;0.000;2023-07-28T11:07:04;2.42;;;1.92;;
58992;SDS011;44782;0.000;0.000;2023-07-28T11:09:22;2.92;;;1.80;;
58992;SDS011;44782;0.000;0.000;2023-07-28T11:11:44;3.08;;;1.75;;
58992;SDS011;44782;0.000;0.000;2023-07-28T11:14:04;3.25;;;1.90;;
58992;SDS011;44782;0.000;0.000;2023-07-28T11:16:22;1.70;;;1.60;;
58992;SDS011;44782;0.000;0.000;2023-07-28T11:18:38;2.28;;;1.50;;
58992;SDS011;44782;0.000;0.000;2023-07-28T11:20:54;2.13;;;1.80;;
58992;SDS011;44782;0.000;0.000;2023-07-28T11:23:09;1.70;;;1.60;;
58992;SDS011;44782;0.000;0.000;2023-07-28T11:25:28;1.98;;;1.88;;
58992;SDS011;44782;0.000;0.000;2023-07-28T11:27:45;1.85;;;1.70;;
58992;SDS011;44782;0.000;0.000;2023-07-28T11:30:02;2.45;;;1.73;;
58992;SDS011;44782;0.000;0.000;2023-07-28T11:32:18;2.33;;;1.88;;
58992;SDS011;44782;0.000;0.000;2023-07-28T11:34:36;1.88;;;1.70;;
58992;SDS011;44782;0.000;0.000;2023-07-28T11:36:52;1.52;;;1.42;;
58992;SDS011;44782;0.000;0.000;2023-07-28T11:39:10;1.75;;;1.63;;
58992;SDS011;44782;0.000;0.000;2023-07-28T11:41:30;1.73;;;1.50;;
58992;SDS011;44782;0.000;0.000;2023-07-28T11:43:49;1.73;;;1.60;;
58992;SDS011;44782;0.000;0.000;2023-07-28T11:46:31;2.83;;;1.80;;
58992;SDS011;44782;0.000;0.000;2023-07-28T11:48:47;1.50;;;1.40;;
58992;SDS011;44782;0.000;0.000;2023-07-28T11:51:06;2.00;;;1.60;;
58992;SDS011;44782;0.000;0.000;2023-07-28T11:53:27;2.20;;;1.63;;
58992;SDS011;44782;0.000;0.000;2023-07-28T11:55:48;1.58;;;1.48;;
58992;SDS011;44782;0.000;0.000;2023-07-28T11:58:04;1.83;;;1.50;;
58992;SDS011;44782;0.000;0.000;2023-07-28T12:00:29;1.60;;;1.50;;
58992;SDS011;44782;0.000;0.000;2023-07-28T12:03:08;2.40;;;1.60;;
58992;SDS011;44782;0.000;0.000;2023-07-28T12:05:27;2.33;;;1.80;;
58992;SDS011;44782;0.000;0.000;2023-07-28T12:07:47;1.42;;;1.33;;
58992;SDS011;44782;0.000;0.000;2023-07-28T12:10:05;1.77;;;1.60;;
58992;SDS011;44782;0.000;0.000;2023-07-28T12:12:28;1.67;;;1.58;;
58992;SDS011;44782;0.000;0.000;2023-07-28T12:14:49;1.50;;;1.40;;
58992;SDS011;44782;0.000;0.000;2023-07-28T12:17:12;2.78;;;1.52;;
58992;SDS011;44782;0.000;0.000;2023-07-28T12:19:28;1.70;;;1.60;;
58992;SDS011;44782;0.000;0.000;2023-07-28T12:21:44;1.67;;;1.50;;
58992;SDS011;44782;0.000;0.000;2023-07-28T12:24:00;1.45;;;1.35;;
58992;SDS011;44782;0.000;0.000;2023-07-28T12:26:15;1.73;;;1.60;;
58992;SDS011;44782;0.000;0.000;2023-07-28T12:28:31;1.50;;;1.40;;
58992;SDS011;44782;0.000;0.000;2023-07-28T12:30:47;1.60;;;1.50;;
58992;SDS011;44782;0.000;0.000;2023-07-28T12:33:07;1.52;;;1.42;;
58992;SDS011;44782;0.000;0.000;2023-07-28T12:35:23;1.70;;;1.40;;
58992;SDS011;44782;0.000;0.000;2023-07-28T12:37:39;1.58;;;1.48;;
58992;SDS011;44782;0.000;0.000;2023-07-28T12:39:54;1.83;;;1.60;;
58992;SDS011;44782;0.000;0.000;2023-07-28T12:42:10;1.73;;;1.38;;
58992;SDS011;44782;0.000;0.000;2023-07-28T12:44:27;1.95;;;1.60;;
58992;SDS011;44782;0.000;0.000;2023-07-28T12:46:42;1.88;;;1.40;;
58992;SDS011;44782;0.000;0.000;2023-07-28T12:48:58;1.50;;;1.40;;
58992;SDS011;44782;0.000;0.000;2023-07-28T12:51:14;1.40;;;1.30;;
58992;SDS011;44782;0.000;0.000;2023-07-28T12:53:29;1.60;;;1.50;;
58992;SDS011;44782;0.000;0.000;2023-07-28T12:55:45;1.40;;;1.30;;
58992;SDS011;44782;0.000;0.000;2023-07-28T12:58:01;1.70;;;1.58;;
58992;SDS011;44782;0.000;0.000;2023-07-28T13:00:17;1.40;;;1.30;;
58992;SDS011;44782;0.000;0.000;2023-07-28T13:02:33;1.63;;;1.50;;
58992;SDS011;44782;0.000;0.000;2023-07-28T13:04:48;1.60;;;1.50;;
58992;SDS011;44782;0.000;0.000;2023-07-28T13:07:04;1.40;;;1.30;;
58992;SDS011;44782;0.000;0.000;2023-07-28T13:09:20;1.33;;;1.25;;
58992;SDS011;44782;0.000;0.000;2023-07-28T13:11:35;1.55;;;1.45;;
58992;SDS011;44782;0.000;0.000;2023-07-28T13:13:51;1.40;;;1.30;;
58992;SDS011;44782;0.000;0.000;2023-07-28T13:16:07;1.40;;;1.30;;
58992;SDS011;44782;0.000;0.000;2023-07-28T13:18:23;1.48;;;1.38;;
58992;SDS011;44782;0.000;0.000;2023-07-28T13:20:40;1.85;;;1.30;;
58992;SDS011;44782;0.000;0.000;2023-07-28T13:22:56;1.30;;;1.20;;
58992;SDS011;44782;0.000;0.000;2023-07-28T13:25:11;1.60;;;1.50;;
58992;SDS011;44782;0.000;0.000;2023-07-28T13:27:28;1.65;;;1.30;;
58992;SDS011;44782;0.000;0.000;2023-07-28T13:29:47;2.00;;;1.40;;
58992;SDS011;44782;0.000;0.000;2023-07-28T13:32:14;1.48;;;1.38;;
58992;SDS011;44782;0.000;0.000;2023-07-28T13:34:33;1.30;;;1.20;;
58992;SDS011;44782;0.000;0.000;2023-07-28T13:36:51;1.50;;;1.40;;
58992;SDS011;44782;0.000;0.000;2023-07-28T13:39:07;1.42;;;1.33;;
58992;SDS011;44782;0.000;0.000;2023-07-28T13:41:22;1.40;;;1.30;;
58992;SDS011;44782;0.000;0.000;2023-07-28T13:43:38;1.10;;;1.10;;
58992;SDS011;44782;0.000;0.000;2023-07-28T13:45:55;1.30;;;1.20;;
58992;SDS011;44782;0.000;0.000;2023-07-28T13:48:16;1.10;;;1.10;;
58992;SDS011;44782;0.000;0.000;2023-07-28T13:50:31;1.60;;;1.50;;
58992;SDS011;44782;0.000;0.000;2023-07-28T13:52:49;1.40;;;1.30;;
58992;SDS011;44782;0.000;0.000;2023-07-28T13:55:05;1.35;;;1.23;;
58992;SDS011;44782;0.000;0.000;2023-07-28T13:57:21;1.15;;;1.08;;
58992;SDS011;44782;0.000;0.000;2023-07-28T13:59:37;1.40;;;1.30;;
58992;SDS011;44782;0.000;0.000;2023-07-28T14:01:52;1.20;;;1.20;;
58992;SDS011;44782;0.000;0.000;2023-07-28T14:04:12;1.77;;;1.02;;
58992;SDS011;44782;0.000;0.000;2023-07-28T14:06:31;1.10;;;1.00;;